Flight Track Log - Related Links

Times and Time Zones

All times are in EDT time to prevent confusion due to time zone crossing. See the N545US flight status page for this flight to view local times or setup timezone preferences in your user account.

Time Position Orientation Groundspeed Altitude Reporting Facility
EDT Latitude Longitude Course Direction KTS MPH feet Rate Location/Type
Mon 10:21:50 AM 33.6500 -84.4000 73° East 165 190 2,200  Level Atlanta TRACON
Mon 10:22:50 AM 33.6667 -84.3333 40° Northeast 242 278 4,300 2,900 Climbing Atlanta TRACON
Mon 10:23:50 AM 33.7167 -84.2833 320° Northwest 289 333 8,000 2,561 Climbing Atlanta TRACON
Mon 10:25:41 AM 33.8125 -84.3789 269° West 259 298 11,600 2,175 Climbing Atlanta Center
Mon 10:26:41 AM 33.8103 -84.4839 265° West 274 315 14,200 1,450 Climbing Atlanta Center
Mon 10:27:41 AM 33.8036 -84.5839 236° Southwest 332 382 14,500 1,300 Climbing Atlanta Center
Mon 10:28:41 AM 33.7403 -84.6983 232° Southwest 351 404 16,800 2,400 Climbing Atlanta Center
Mon 10:29:41 AM 33.6708 -84.8050 238° Southwest 370 426 19,300 2,300 Climbing Atlanta Center
Mon 10:30:41 AM 33.6075 -84.9267 241° Southwest 422 486 21,400 1,900 Climbing Atlanta Center
Mon 10:31:41 AM 33.5500 -85.0533 251° West 438 504 23,100 850 Climbing Atlanta Center
Mon 10:32:41 AM 33.5092 -85.1922 258° West 447 514 23,100 750 Level Atlanta Center
Mon 10:33:41 AM 33.4828 -85.3364 257° West 447 514 24,600 1,450 Climbing Atlanta Center
Mon 10:34:41 AM 33.4539 -85.4853 261° West 452 520 26,000 950 Climbing Atlanta Center
Mon 10:35:41 AM 33.4333 -85.6344 244° Southwest 462 532 26,500 850 Climbing Atlanta Center
Mon 10:36:41 AM 33.3706 -85.7875 218° Southwest 462 532 27,700 750 Climbing Atlanta Center
Mon 10:37:41 AM 33.2628 -85.8872 221° Southwest 479 551 28,000 150 Climbing Atlanta Center
Mon 10:38:41 AM 33.1589 -85.9967 221° Southwest 494 568 28,000  Level Atlanta Center
Mon 10:39:41 AM 33.0569 -86.1008 220° Southwest 494 568 28,000  Level Atlanta Center
Mon 10:40:41 AM 32.9550 -86.2025 220° Southwest 488 562 28,000  Level Atlanta Center
Mon 10:41:41 AM 32.8678 -86.2894 220° Southwest 482 555 28,000  Level Atlanta Center
Mon 10:42:41 AM 32.7636 -86.3931 219° Southwest 477 549 28,000  Level Atlanta Center
Mon 10:43:41 AM 32.6614 -86.4914 221° Southwest 482 555 28,000  Level Atlanta Center
Mon 10:44:41 AM 32.5656 -86.5897 222° Southwest 475 547 28,000  Level Atlanta Center
Mon 10:45:41 AM 32.4544 -86.7072 217° Southwest 475 547 28,000  Level Atlanta Center
Mon 10:46:41 AM 32.3608 -86.7903 220° Southwest 475 547 28,000  Level Atlanta Center
Mon 10:47:41 AM 32.2583 -86.8903 219° Southwest 475 547 28,000  Level Atlanta Center
Mon 10:48:41 AM 32.1603 -86.9831 219° Southwest 475 547 28,000  Level Atlanta Center
Mon 10:49:41 AM 32.0597 -87.0800 220° Southwest 470 541 28,000  Level Atlanta Center
Mon 10:50:41 AM 31.9592 -87.1794 220° Southwest 470 541 28,000  Level Atlanta Center
Mon 10:52:39 AM 31.7656 -87.3678 220° Southwest 457 526 28,000  Level Houston Center
Mon 10:53:39 AM 31.6686 -87.4647 220° Southwest 462 532 28,000  Level Houston Center
Mon 10:54:39 AM 31.5672 -87.5642 219° Southwest 467 537 28,000  Level Houston Center
Mon 10:55:39 AM 31.4681 -87.6583 219° Southwest 467 537 28,000  Level Houston Center
Mon 10:56:39 AM 31.3686 -87.7522 219° Southwest 472 543 28,000  Level Houston Center
Mon 10:57:39 AM 31.2669 -87.8483 219° Southwest 465 535 28,000  Level Houston Center
Mon 10:58:39 AM 31.1531 -87.9547 219° Southwest 475 547 28,000  Level Houston Center
Mon 10:59:39 AM 31.0556 -88.0478 220° Southwest 475 547 28,000  Level Houston Center
Mon 11:00:39 AM 30.9539 -88.1458 219° Southwest 475 547 28,000  Level Houston Center
Mon 11:01:39 AM 30.8539 -88.2389 221° Southwest 475 547 28,000  Level Houston Center
Mon 11:02:39 AM 30.7583 -88.3339 231° Southwest 469 540 28,000  Level Houston Center
Mon 11:03:39 AM 30.6756 -88.4525 244° Southwest 464 534 28,000  Level Houston Center
Mon 11:04:39 AM 30.6203 -88.5869 243° Southwest 469 540 28,000 -850 Level Houston Center
Mon 11:05:39 AM 30.5628 -88.7189 243° Southwest 469 540 26,300 -1,950 Descending Houston Center
Mon 11:06:39 AM 30.5069 -88.8458 243° Southwest 457 526 24,100 -2,250 Descending Houston Center
Mon 11:07:39 AM 30.4550 -88.9631 244° Southwest 441 507 21,800 -2,300 Descending Houston Center
Mon 11:08:39 AM 30.4053 -89.0822 246° West 423 487 19,500 -2,100 Descending Houston Center
Mon 11:09:39 AM 30.3614 -89.1964 247° West 408 470 17,600 -1,800 Descending Houston Center
Mon 11:10:39 AM 30.3197 -89.3106 246° West 396 456 15,900 -1,886 Descending Houston Center
Mon 11:11:24 AM 30.2878 -89.3956 246° West 371 427 14,300 -2,150 Descending Houston Center
Mon 11:12:39 AM 30.2397 -89.5214 246° West 368 423 11,600 -1,467 Descending Houston Center
Mon 11:13:39 AM 30.2017 -89.6208 252° West 356 410 11,000 -952 Descending Houston Center
Mon 11:14:45 AM 30.1739 -89.7222 263° West 302 348 9,600 -1,350 Descending Houston Center
Mon 11:15:39 AM 30.1644 -89.8064 263° West 303 349 8,300 -1,526 Descending Houston Center
Mon 11:16:39 AM 30.1553 -89.8981 263° West 298 343 6,700 -1,250 Descending Houston Center
Mon 11:17:39 AM 30.1478 -89.9678 263° West 288 331 5,800 -900 Descending Houston Center
Mon 11:18:39 AM 30.1386 -90.0592 256° West 278 320 4,900 -450 Descending Houston Center
Mon 11:19:39 AM 30.1228 -90.1314 254° West 257 296 4,900 48 Level Houston Center
Mon 11:20:43 AM 30.1006 -90.2206 266° West 244 281 5,000 -350 Climbing Houston Center
Mon 11:21:39 AM 30.0972 -90.2831 265° West 245 282 4,200 -1,190 Descending Houston Center
Mon 11:22:39 AM 30.0917 -90.3528 204° Southwest 234 269 2,700 -1,050 Descending Houston Center
Mon 11:23:39 AM 30.0397 -90.3797 142° Southeast 203 234 2,100 -700 Descending Houston Center
Mon 11:24:39 AM 30.0081 -90.3514 142° Southeast 142 163 1,300 -800 Descending Houston Center

Login

Don't have an account? Register now (free) for customized features, flight alerts, and more!